Time;durP1;ratioP1;P1;durP2;ratioP2;P2;SDS_P1;SDS_P2;PMS_P1;PMS_P2;Temp;Humidity;BMP_temperature;BMP_pressure;BME280_temperature;BME280_humidity;BME280_pressure;Samples;Min_cycle;Max_cycle;Signal;HPM_P1;HPM_P2
2022/01/01 00:00:11;;;;;;;126.45;68.22;;;10.40;99.90;;;;;;5028585;28;20042;-68
2022/01/01 00:02:37;;;;;;;142.00;74.03;;;10.30;99.90;;;;;;5048491;28;20045;-68
2022/01/01 00:05:04;;;;;;;135.32;69.90;;;10.30;99.90;;;;;;5048206;28;20537;-69
2022/01/01 00:07:35;;;;;;;142.88;67.35;;;10.30;99.90;;;;;;5044400;28;20368;-69
2022/01/01 00:10:05;;;;;;;115.13;58.25;;;10.30;99.90;;;;;;5046189;28;20194;-68
2022/01/01 00:12:37;;;;;;;104.20;52.05;;;10.30;99.90;;;;;;5033607;28;20131;-67
2022/01/01 00:15:03;;;;;;;107.32;49.15;;;10.40;99.90;;;;;;5052409;28;20072;-68
2022/01/01 00:17:29;;;;;;;106.47;47.20;;;10.20;99.90;;;;;;5052216;28;20102;-68
2022/01/01 00:19:55;;;;;;;178.65;99.03;;;10.30;99.90;;;;;;5053461;28;20524;-68
2022/01/01 00:22:20;;;;;;;122.13;58.65;;;10.20;99.90;;;;;;5048693;28;20445;-68
2022/01/01 00:24:46;;;;;;;90.68;46.33;;;10.20;99.90;;;;;;5053092;28;20049;-69
2022/01/01 00:27:11;;;;;;;89.53;43.50;;;10.20;99.90;;;;;;5050266;28;20037;-69
2022/01/01 00:29:37;;;;;;;89.40;41.97;;;10.30;99.90;;;;;;5051128;28;20049;-68
2022/01/01 00:32:03;;;;;;;90.55;42.65;;;10.30;99.90;;;;;;5051162;28;20049;-69
2022/01/01 00:34:29;;;;;;;101.10;42.58;;;10.30;99.90;;;;;;5052447;28;20144;-68
2022/01/01 00:36:55;;;;;;;92.35;40.55;;;10.20;99.90;;;;;;5052033;28;20136;-66
2022/01/01 00:39:20;;;;;;;94.95;37.45;;;10.30;99.90;;;;;;5050532;28;20045;-68
2022/01/01 00:41:47;;;;;;;92.35;37.42;;;10.80;99.90;;;;;;5052579;28;20384;-70
2022/01/01 00:44:13;;;;;;;99.28;36.50;;;10.20;99.90;;;;;;5051001;28;20081;-68
2022/01/01 00:46:39;;;;;;;82.97;33.10;;;10.20;99.90;;;;;;5047445;28;20034;-69
2022/01/01 00:49:05;;;;;;;86.70;33.55;;;10.20;99.90;;;;;;5050751;28;20443;-69
2022/01/01 00:51:31;;;;;;;78.72;31.02;;;10.20;99.90;;;;;;5051714;28;20155;-68
2022/01/01 00:53:56;;;;;;;79.72;31.10;;;10.10;99.90;;;;;;5053326;28;20045;-67
2022/01/01 00:56:22;;;;;;;78.15;31.02;;;10.10;99.90;;;;;;5050889;28;20059;-67
2022/01/01 00:58:47;;;;;;;79.05;30.67;;;10.10;99.90;;;;;;5033905;28;20557;-68
2022/01/01 01:01:13;;;;;;;90.93;31.05;;;10.10;99.90;;;;;;5047294;28;20033;-68
2022/01/01 01:03:42;;;;;;;80.13;30.10;;;10.10;99.90;;;;;;5049825;28;20091;-67
2022/01/01 01:06:10;;;;;;;78.15;28.65;;;10.00;99.90;;;;;;5046011;28;20068;-72
2022/01/01 01:08:36;;;;;;;83.05;30.45;;;10.00;99.90;;;;;;5052082;28;20041;-66
2022/01/01 01:11:06;;;;;;;88.97;34.65;;;10.00;99.90;;;;;;5030912;28;20063;-68
2022/01/01 01:13:33;;;;;;;85.97;32.20;;;9.90;99.90;;;;;;5051795;28;20146;-69
2022/01/01 01:15:59;;;;;;;92.88;34.22;;;9.90;99.90;;;;;;5050958;28;20550;-68
2022/01/01 01:18:27;;;;;;;88.82;31.63;;;9.90;99.90;;;;;;5047211;28;20077;-67
2022/01/01 01:20:52;;;;;;;;;;;9.80;99.90;;;;;;5052109;28;20052;-69
2022/01/01 01:23:18;;;;;;;90.03;31.45;;;9.80;99.90;;;;;;5049904;28;20068;-68
2022/01/01 01:25:44;;;;;;;89.70;29.40;;;9.80;99.90;;;;;;5052228;28;20077;-69
2022/01/01 01:28:13;;;;;;;73.25;28.92;;;9.80;99.90;;;;;;5050389;28;20072;-67
2022/01/01 01:30:40;;;;;;;87.45;29.40;;;9.80;99.90;;;;;;5051115;28;20044;-68
2022/01/01 01:33:07;;;;;;;82.60;29.50;;;9.70;99.90;;;;;;5050420;28;20099;-68
2022/01/01 01:35:33;;;;;;;91.55;31.70;;;9.70;99.90;;;;;;5047323;28;20179;-69
2022/01/01 01:38:01;;;;;;;91.00;35.53;;;9.70;99.90;;;;;;5047861;28;20506;-69
2022/01/01 01:40:28;;;;;;;90.38;34.53;;;9.70;99.90;;;;;;5049321;28;20080;-68
2022/01/01 01:42:54;;;;;;;99.15;39.33;;;9.70;99.90;;;;;;5048859;28;20461;-68
2022/01/01 01:45:21;;;;;;;103.05;37.25;;;9.70;99.90;;;;;;5049100;28;20133;-67
2022/01/01 01:47:48;;;;;;;82.05;27.55;;;9.70;99.90;;;;;;5049665;28;20884;-68
2022/01/01 01:50:16;;;;;;;83.60;27.98;;;9.60;99.90;;;;;;5049095;28;20096;-69
2022/01/01 01:52:54;;;;;;;90.30;29.25;;;9.80;99.90;;;;;;5049859;28;20073;-68
2022/01/01 01:55:20;;;;;;;81.53;27.60;;;9.60;99.90;;;;;;5045071;28;20044;-69
2022/01/01 01:57:46;;;;;;;80.72;27.58;;;9.60;99.90;;;;;;5062733;28;20094;-69
2022/01/01 02:03:01;;;;;;;80.63;27.95;;;9.70;99.90;;;;;;5014587;28;20053;-70
2022/01/01 02:05:33;;;;;;;84.88;29.77;;;10.30;99.90;;;;;;5050088;28;20047;-68
2022/01/01 02:08:06;;;;;;;101.40;31.38;;;9.70;99.90;;;;;;5050420;28;20033;-69
2022/01/01 02:10:33;;;;;;;107.05;31.98;;;9.70;99.90;;;;;;5048197;28;20059;-69
2022/01/01 02:13:13;;;;;;;93.80;31.38;;;9.80;99.90;;;;;;5047854;28;20355;-67
2022/01/01 02:18:16;;;;;;;102.95;36.03;;;9.80;99.90;;;;;;5048822;28;20053;-67
2022/01/01 02:20:44;;;;;;;102.82;36.05;;;9.90;99.90;;;;;;5050541;28;20040;-66
2022/01/01 02:23:14;;;;;;;111.78;38.70;;;9.90;99.90;;;;;;5044612;28;20479;-67
2022/01/01 02:25:43;;;;;;;105.45;39.50;;;10.00;99.90;;;;;;5032752;28;20106;-68
2022/01/01 02:28:11;;;;;;;118.18;41.53;;;10.00;99.90;;;;;;5048086;28;20186;-67
2022/01/01 02:30:39;;;;;;;122.97;46.63;;;10.00;99.90;;;;;;5048722;28;20045;-69
2022/01/01 02:33:08;;;;;;;132.15;48.88;;;10.00;99.90;;;;;;5050217;28;20589;-67
2022/01/01 02:35:34;;;;;;;132.45;48.92;;;10.00;99.90;;;;;;5049305;28;20071;-69
2022/01/01 02:38:00;;;;;;;129.85;49.65;;;10.00;99.90;;;;;;5050644;28;20087;-68
2022/01/01 02:40:28;;;;;;;141.55;49.72;;;10.10;99.90;;;;;;5049436;28;20044;-67
2022/01/01 02:42:55;;;;;;;141.98;51.10;;;10.10;99.90;;;;;;5047290;28;20094;-68
2022/01/01 02:45:21;;;;;;;124.18;48.35;;;10.10;99.90;;;;;;5046749;28;20049;-67
2022/01/01 02:47:47;;;;;;;132.48;49.70;;;10.20;99.90;;;;;;5047958;28;20041;-68
2022/01/01 02:50:13;;;;;;;126.85;46.67;;;10.30;99.90;;;;;;5049432;28;20125;-67
2022/01/01 02:52:39;;;;;;;137.65;46.42;;;10.20;99.90;;;;;;5047315;28;20049;-67
2022/01/01 02:55:06;;;;;;;129.57;47.35;;;10.20;99.90;;;;;;5035690;28;20091;-68
2022/01/01 02:57:41;;;;;;;127.68;43.95;;;10.20;99.90;;;;;;5047535;28;20067;-70
2022/01/01 03:00:08;;;;;;;126.68;43.30;;;10.30;99.90;;;;;;5049402;28;20180;-67
2022/01/01 03:02:35;;;;;;;129.27;42.35;;;10.30;99.90;;;;;;5049258;28;20041;-68
2022/01/01 03:05:01;;;;;;;116.72;39.25;;;10.30;99.90;;;;;;5054393;28;20041;-68
2022/01/01 03:07:27;;;;;;;109.05;38.38;;;10.50;99.90;;;;;;5050090;28;20191;-67
2022/01/01 03:09:54;;;;;;;124.82;38.50;;;10.30;99.90;;;;;;5049354;28;20128;-68
2022/01/01 03:12:19;;;;;;;129.05;40.88;;;10.30;99.90;;;;;;5048337;28;20045;-68
2022/01/01 03:14:45;;;;;;;100.13;36.30;;;10.30;99.90;;;;;;5050145;28;20060;-67
2022/01/01 03:17:11;;;;;;;101.65;37.90;;;10.30;99.90;;;;;;5064815;28;20427;-69
2022/01/01 03:19:37;;;;;;;105.63;36.72;;;10.30;99.90;;;;;;5049838;28;20141;-68
2022/01/01 03:22:04;;;;;;;105.25;37.15;;;10.30;99.90;;;;;;5064007;28;20080;-68
2022/01/01 03:24:30;;;;;;;115.03;37.03;;;10.30;99.90;;;;;;5049223;28;20056;-67
2022/01/01 03:26:56;;;;;;;107.95;36.38;;;10.30;99.90;;;;;;5049400;28;20045;-68
2022/01/01 03:29:28;;;;;;;113.65;38.47;;;10.30;99.90;;;;;;5038057;28;20042;-67
2022/01/01 03:31:57;;;;;;;112.85;38.70;;;10.30;99.90;;;;;;5047268;28;20045;-69
2022/01/01 03:34:23;;;;;;;117.13;39.30;;;10.30;99.90;;;;;;5046218;28;20045;-68
2022/01/01 03:36:50;;;;;;;106.95;38.10;;;10.30;99.90;;;;;;5050388;28;20030;-69
2022/01/01 03:39:16;;;;;;;109.15;38.03;;;10.40;99.90;;;;;;5037820;28;20056;-68
2022/01/01 03:41:42;;;;;;;104.00;37.47;;;10.30;99.90;;;;;;5049372;28;20045;-68
2022/01/01 03:44:08;;;;;;;107.35;37.25;;;10.30;99.90;;;;;;5042501;28;20042;-68
2022/01/01 03:46:33;;;;;;;111.95;38.42;;;10.30;99.90;;;;;;5051394;28;20093;-67
2022/01/01 03:49:00;;;;;;;101.40;36.30;;;10.30;99.90;;;;;;5031481;28;20459;-67
2022/01/01 03:51:27;;;;;;;108.32;36.22;;;10.30;99.90;;;;;;5052434;28;20562;-67
2022/01/01 03:53:57;;;;;;;113.95;38.22;;;10.30;99.90;;;;;;5054516;28;20076;-68
2022/01/01 03:56:23;;;;;;;115.75;35.67;;;10.30;99.90;;;;;;5048912;28;20053;-68
2022/01/01 03:58:48;;;;;;;114.32;34.45;;;10.30;99.90;;;;;;5051094;28;20071;-67
2022/01/01 04:01:14;;;;;;;98.30;33.97;;;10.20;99.90;;;;;;5045386;28;20033;-67
2022/01/01 04:03:43;;;;;;;108.20;34.65;;;10.30;99.90;;;;;;5046737;28;20112;-66
2022/01/01 04:06:12;;;;;;;97.47;33.65;;;10.30;99.90;;;;;;5058985;28;20048;-68
2022/01/01 04:08:38;;;;;;;97.68;32.05;;;10.30;99.90;;;;;;5053185;28;20037;-70
2022/01/01 04:11:07;;;;;;;110.90;32.05;;;10.30;99.90;;;;;;5052613;28;20052;-68
2022/01/01 04:13:32;;;;;;;94.80;31.35;;;10.20;99.90;;;;;;5049118;28;20036;-68
2022/01/01 04:16:01;;;;;;;85.90;30.40;;;10.20;99.90;;;;;;5053296;28;20041;-67
2022/01/01 04:18:38;;;;;;;89.05;30.60;;;10.20;99.90;;;;;;5045318;28;20094;-68
2022/01/01 04:21:08;;;;;;;104.82;31.90;;;10.20;99.90;;;;;;5042961;28;20044;-67
2022/01/01 04:23:34;;;;;;;95.30;31.00;;;10.10;99.90;;;;;;5043224;28;20054;-67
2022/01/01 04:26:01;;;;;;;97.07;31.40;;;10.10;99.90;;;;;;5053694;28;20049;-67
2022/01/01 04:28:29;;;;;;;93.13;32.17;;;10.10;99.90;;;;;;5050313;28;20049;-68
2022/01/01 04:30:55;;;;;;;103.65;33.10;;;10.10;99.90;;;;;;5049677;28;20052;-68
2022/01/01 04:33:20;;;;;;;103.25;31.30;;;10.10;99.90;;;;;;5050659;28;20136;-67
2022/01/01 04:35:46;;;;;;;85.38;31.50;;;10.30;99.90;;;;;;5050965;28;20099;-67
2022/01/01 04:38:28;;;;;;;100.07;32.95;;;10.20;99.90;;;;;;5039828;28;20045;-68
2022/01/01 04:40:58;;;;;;;103.18;31.90;;;10.20;99.90;;;;;;5050855;28;20048;-67
2022/01/01 04:43:23;;;;;;;93.30;31.60;;;10.20;99.90;;;;;;5052489;28;20052;-67
2022/01/01 04:45:49;;;;;;;99.68;32.83;;;10.20;99.90;;;;;;5033262;28;20053;-67
2022/01/01 04:48:15;;;;;;;87.47;32.58;;;10.20;99.90;;;;;;5034280;28;20045;-68
2022/01/01 04:50:43;;;;;;;101.35;33.15;;;10.20;99.90;;;;;;5051812;28;20052;-68
2022/01/01 04:53:14;;;;;;;88.70;32.50;;;10.20;99.90;;;;;;5047600;28;20045;-68
2022/01/01 04:55:41;;;;;;;102.63;32.45;;;10.20;99.90;;;;;;5042359;28;20037;-68
2022/01/01 04:58:07;;;;;;;93.05;32.58;;;10.20;99.90;;;;;;5034833;28;20042;-67
2022/01/01 05:00:32;;;;;;;98.28;34.60;;;10.20;99.90;;;;;;5043543;28;20048;-67
2022/01/01 05:02:58;;;;;;;99.82;34.95;;;10.20;99.90;;;;;;5051700;28;20047;-66
2022/01/01 05:05:24;;;;;;;98.07;35.40;;;10.10;99.90;;;;;;5049790;28;20052;-68
2022/01/01 05:07:50;;;;;;;99.43;36.25;;;10.20;99.90;;;;;;5049541;28;20037;-67
2022/01/01 05:10:17;;;;;;;90.50;38.17;;;10.20;99.90;;;;;;5051999;28;20464;-67
2022/01/01 05:12:43;;;;;;;101.40;38.27;;;10.20;99.90;;;;;;5047651;28;20047;-67
2022/01/01 05:15:09;;;;;;;92.20;37.67;;;10.20;99.90;;;;;;5049431;28;20045;-68
2022/01/01 05:17:39;;;;;;;107.35;39.65;;;10.20;99.90;;;;;;5047731;28;20375;-67
2022/01/01 05:20:10;;;;;;;115.80;42.22;;;10.30;99.90;;;;;;5041251;28;20053;-67
2022/01/01 05:22:39;;;;;;;110.18;44.33;;;10.30;99.90;;;;;;5051033;28;20087;-67
2022/01/01 05:25:05;;;;;;;115.60;45.55;;;10.30;99.90;;;;;;5051531;28;20461;-68
2022/01/01 05:27:34;;;;;;;120.63;49.65;;;10.30;99.90;;;;;;5052619;28;20705;-68
2022/01/01 05:30:00;;;;;;;116.40;49.65;;;10.30;99.90;;;;;;5047649;28;20487;-68
2022/01/01 05:32:27;;;;;;;125.90;53.53;;;10.30;99.90;;;;;;5052470;28;20411;-70
2022/01/01 05:34:53;;;;;;;118.53;53.83;;;10.30;99.90;;;;;;5059336;28;20063;-67
2022/01/01 05:37:18;;;;;;;118.00;55.58;;;10.30;99.90;;;;;;5060509;28;20061;-67
2022/01/01 05:39:44;;;;;;;138.23;57.47;;;10.30;99.90;;;;;;5028018;28;20065;-67
2022/01/01 05:42:10;;;;;;;130.10;59.45;;;10.30;99.90;;;;;;5047891;28;20044;-67
2022/01/01 05:44:35;;;;;;;142.00;58.90;;;10.40;99.90;;;;;;5050263;28;20164;-68
2022/01/01 05:47:01;;;;;;;135.43;59.38;;;10.40;99.90;;;;;;5050166;28;20040;-69
2022/01/01 05:49:26;;;;;;;132.98;56.90;;;10.30;99.90;;;;;;5051728;28;20037;-67
2022/01/01 05:51:52;;;;;;;130.70;58.65;;;10.30;99.90;;;;;;5033810;28;20602;-67
2022/01/01 05:54:18;;;;;;;138.98;55.05;;;10.30;99.90;;;;;;5050928;28;20048;-67
2022/01/01 05:56:43;;;;;;;134.20;54.67;;;10.30;99.90;;;;;;5048804;28;20483;-67
2022/01/01 05:59:09;;;;;;;131.88;53.55;;;10.30;99.90;;;;;;5049951;28;20141;-66
2022/01/01 06:01:34;;;;;;;127.75;50.53;;;10.30;99.90;;;;;;5050784;28;20064;-67
2022/01/01 06:04:00;;;;;;;112.50;48.53;;;10.30;99.90;;;;;;5050040;28;20041;-67
2022/01/01 06:06:26;;;;;;;120.00;47.70;;;10.30;99.90;;;;;;5049986;28;20072;-68
2022/01/01 06:08:52;;;;;;;98.60;38.90;;;10.30;99.90;;;;;;5050578;28;20449;-67
2022/01/01 06:11:18;;;;;;;104.57;39.63;;;10.30;99.90;;;;;;5044488;28;20047;-67
2022/01/01 06:13:43;;;;;;;105.88;38.30;;;10.20;99.90;;;;;;5051757;28;20117;-67
2022/01/01 06:16:10;;;;;;;98.47;37.22;;;10.30;99.90;;;;;;5050530;28;20466;-68
2022/01/01 06:18:36;;;;;;;108.65;39.55;;;10.20;99.90;;;;;;5049603;28;20048;-68
2022/01/01 06:21:04;;;;;;;102.82;36.92;;;10.20;99.90;;;;;;5047359;28;20102;-68
2022/01/01 06:23:30;;;;;;;105.72;36.20;;;10.20;99.90;;;;;;5051163;28;20053;-67
2022/01/01 06:25:56;;;;;;;104.15;35.35;;;10.20;99.90;;;;;;5050168;28;20128;-67
2022/01/01 06:28:24;;;;;;;104.07;34.10;;;10.20;99.90;;;;;;5050631;28;20057;-68
2022/01/01 06:30:50;;;;;;;102.13;34.65;;;10.20;99.90;;;;;;5050169;28;20107;-68
2022/01/01 06:33:17;;;;;;;112.05;33.58;;;10.20;99.90;;;;;;5048703;28;20036;-67
2022/01/01 06:35:45;;;;;;;117.55;32.88;;;10.20;99.90;;;;;;5050277;28;20503;-68
2022/01/01 06:38:11;;;;;;;106.15;32.80;;;10.20;99.90;;;;;;5028389;28;20057;-67
2022/01/01 06:40:41;;;;;;;102.00;32.30;;;10.30;99.90;;;;;;5028680;28;20389;-69
2022/01/01 06:43:08;;;;;;;107.82;30.15;;;10.20;99.90;;;;;;5027886;28;20140;-68
2022/01/01 06:45:38;;;;;;;98.68;32.55;;;10.30;99.90;;;;;;5012455;28;20116;-67
2022/01/01 06:48:04;;;;;;;98.40;31.42;;;10.30;99.90;;;;;;5027719;28;20140;-67
2022/01/01 06:50:29;;;;;;;95.40;30.67;;;10.30;99.90;;;;;;5011848;28;20033;-68
2022/01/01 06:52:55;;;;;;;97.75;29.63;;;10.30;99.90;;;;;;5028526;28;20495;-67
2022/01/01 06:55:24;;;;;;;89.22;29.05;;;10.30;99.90;;;;;;5027375;28;20049;-68
2022/01/01 06:57:50;;;;;;;95.45;29.15;;;10.30;99.90;;;;;;5011553;28;20100;-69
2022/01/01 07:00:16;;;;;;;104.68;29.88;;;10.30;99.90;;;;;;5025355;28;20058;-67
2022/01/01 07:02:47;;;;;;;97.70;28.50;;;10.30;99.90;;;;;;4986834;28;20392;-67
2022/01/01 07:05:14;;;;;;;100.35;29.90;;;10.30;99.90;;;;;;5015759;28;20045;-68
2022/01/01 07:07:40;;;;;;;88.57;28.20;;;10.60;99.90;;;;;;5028669;28;20259;-67
2022/01/01 07:10:08;;;;;;;95.10;29.98;;;10.10;99.90;;;;;;5041454;28;20040;-69
2022/01/01 07:12:35;;;;;;;92.85;28.23;;;10.30;99.90;;;;;;5048672;28;20041;-68
2022/01/01 07:15:01;;;;;;;105.65;29.33;;;10.30;99.90;;;;;;5050491;28;20044;-67
2022/01/01 07:17:30;;;;;;;87.20;27.40;;;10.40;99.90;;;;;;5043148;28;20518;-68
2022/01/01 07:19:56;;;;;;;89.30;27.48;;;10.40;99.90;;;;;;5048987;28;20052;-66
2022/01/01 07:22:22;;;;;;;95.55;28.05;;;10.40;99.90;;;;;;5052629;28;20048;-68
2022/01/01 07:24:49;;;;;;;83.53;26.65;;;10.40;99.90;;;;;;5066248;28;20066;-67
2022/01/01 07:27:20;;;;;;;83.80;25.83;;;10.40;99.90;;;;;;5042082;28;20059;-67
2022/01/01 07:29:46;;;;;;;85.20;24.98;;;10.50;99.90;;;;;;5053357;28;20037;-66
2022/01/01 07:32:11;;;;;;;84.03;25.25;;;10.40;99.90;;;;;;5050114;28;20047;-67
2022/01/01 07:34:37;;;;;;;86.03;26.58;;;10.40;99.90;;;;;;5054405;28;20123;-68
2022/01/01 07:37:03;;;;;;;88.22;26.13;;;10.40;99.90;;;;;;5050477;28;20043;-67
2022/01/01 07:39:29;;;;;;;84.40;27.98;;;10.40;99.90;;;;;;5052521;28;20090;-68
2022/01/01 07:41:54;;;;;;;97.93;28.10;;;10.50;99.90;;;;;;5035756;28;20479;-67
2022/01/01 07:44:20;;;;;;;102.28;28.52;;;10.50;99.90;;;;;;5053195;28;20052;-68
2022/01/01 07:46:46;;;;;;;95.20;30.15;;;10.50;99.90;;;;;;5053014;28;20044;-68
2022/01/01 07:49:12;;;;;;;94.90;28.27;;;10.60;99.90;;;;;;5053692;28;20033;-67
2022/01/01 07:51:37;;;;;;;87.45;27.55;;;10.50;99.90;;;;;;5051201;28;20131;-68
2022/01/01 07:54:03;;;;;;;92.53;27.90;;;10.60;99.90;;;;;;5051162;28;20068;-68
2022/01/01 07:56:29;;;;;;;105.03;29.98;;;10.60;99.90;;;;;;5050852;28;20052;-67
2022/01/01 07:58:57;;;;;;;95.85;28.67;;;10.60;99.90;;;;;;5053715;28;20036;-67
2022/01/01 08:01:23;;;;;;;88.18;28.50;;;10.60;99.90;;;;;;5047421;28;20045;-68
2022/01/01 08:03:49;;;;;;;82.38;28.45;;;10.60;99.90;;;;;;5050040;28;20044;-67
2022/01/01 08:06:16;;;;;;;90.90;27.65;;;10.60;99.90;;;;;;5039933;28;20049;-66
2022/01/01 08:08:42;;;;;;;97.60;29.98;;;10.60;99.90;;;;;;5043145;28;20041;-66
2022/01/01 08:11:10;;;;;;;101.25;31.05;;;10.70;99.90;;;;;;5053676;28;20041;-68
2022/01/01 08:13:36;;;;;;;95.00;29.50;;;10.60;99.90;;;;;;5035796;28;20538;-67
2022/01/01 08:16:02;;;;;;;106.78;32.35;;;10.70;99.90;;;;;;5056353;28;20074;-68
2022/01/01 08:18:29;;;;;;;89.00;29.88;;;10.70;99.90;;;;;;5053046;28;20117;-68
2022/01/01 08:20:56;;;;;;;89.20;30.98;;;10.70;99.90;;;;;;5052359;28;20483;-68
2022/01/01 08:23:22;;;;;;;101.60;31.70;;;10.70;99.90;;;;;;5050742;28;20044;-68
2022/01/01 08:25:49;;;;;;;110.68;33.40;;;10.70;99.90;;;;;;5036983;28;20045;-66
2022/01/01 08:28:17;;;;;;;95.72;31.25;;;10.70;99.90;;;;;;5050434;28;20519;-67
2022/01/01 08:30:43;;;;;;;103.47;33.95;;;10.90;99.90;;;;;;5052558;28;20045;-67
2022/01/01 08:33:11;;;;;;;106.25;33.83;;;10.80;99.90;;;;;;5052305;28;20103;-67
2022/01/01 08:35:37;;;;;;;126.80;35.75;;;10.80;99.90;;;;;;5051983;28;20094;-69
2022/01/01 08:38:04;;;;;;;95.45;35.05;;;10.80;99.90;;;;;;5047605;28;20053;-67
2022/01/01 08:40:31;;;;;;;110.43;34.90;;;10.90;99.90;;;;;;5047291;28;20384;-69
2022/01/01 08:42:57;;;;;;;103.85;35.33;;;10.90;99.90;;;;;;5062624;28;20533;-67
2022/01/01 08:45:23;;;;;;;120.63;36.08;;;10.90;99.90;;;;;;5052059;28;20044;-67
2022/01/01 08:47:49;;;;;;;108.45;34.25;;;10.90;99.90;;;;;;5034644;28;20110;-68
2022/01/01 08:50:15;;;;;;;100.45;35.35;;;10.90;99.90;;;;;;5042043;28;20045;-66
2022/01/01 08:52:41;;;;;;;103.68;35.17;;;10.90;99.90;;;;;;5045405;28;20049;-69
2022/01/01 08:55:08;;;;;;;113.50;36.35;;;11.00;99.90;;;;;;5050683;28;20037;-67
2022/01/01 08:57:34;;;;;;;102.45;35.33;;;11.00;99.90;;;;;;5044680;28;20037;-67
2022/01/01 09:00:01;;;;;;;96.68;33.53;;;11.00;99.90;;;;;;5053666;28;20056;-67
2022/01/01 09:02:27;;;;;;;114.10;36.17;;;11.10;99.90;;;;;;5052897;28;20041;-68
2022/01/01 09:04:53;;;;;;;103.00;35.78;;;11.10;99.90;;;;;;5052622;28;20048;-68
2022/01/01 09:07:19;;;;;;;104.22;34.45;;;11.10;99.90;;;;;;5051380;28;20040;-66
2022/01/01 09:09:45;;;;;;;97.05;33.42;;;11.20;99.90;;;;;;5051605;28;20044;-66
2022/01/01 09:12:11;;;;;;;87.95;34.50;;;11.20;99.90;;;;;;5052066;28;20517;-67
2022/01/01 09:14:38;;;;;;;97.43;33.08;;;11.30;99.90;;;;;;5051519;28;20461;-68
2022/01/01 09:17:06;;;;;;;102.00;33.47;;;11.30;99.90;;;;;;5047472;28;20053;-66
2022/01/01 09:19:32;;;;;;;95.78;34.28;;;11.30;99.90;;;;;;5044591;28;20135;-67
2022/01/01 09:21:58;;;;;;;105.03;35.25;;;11.40;99.90;;;;;;5052155;28;20116;-67
2022/01/01 09:24:24;;;;;;;86.97;33.45;;;11.40;99.90;;;;;;5051945;28;20060;-67
2022/01/01 09:26:50;;;;;;;76.53;31.92;;;11.40;99.90;;;;;;5049306;28;20037;-68
2022/01/01 09:29:18;;;;;;;76.43;33.28;;;11.40;99.90;;;;;;5067043;28;20552;-66
2022/01/01 09:31:46;;;;;;;73.28;31.15;;;11.50;99.90;;;;;;5046159;28;20087;-67
2022/01/01 09:34:12;;;;;;;81.88;32.28;;;11.50;99.90;;;;;;5051364;28;20044;-66
2022/01/01 09:36:38;;;;;;;84.63;32.55;;;11.60;99.90;;;;;;5052117;28;20056;-68
2022/01/01 09:39:05;;;;;;;61.83;28.92;;;11.60;99.90;;;;;;5051580;28;20471;-67
2022/01/01 09:41:31;;;;;;;69.20;29.35;;;11.60;99.90;;;;;;5052346;28;20045;-69
2022/01/01 09:43:58;;;;;;;70.93;30.33;;;11.70;99.90;;;;;;5049613;28;20094;-68
2022/01/01 09:46:26;;;;;;;59.88;29.42;;;11.60;99.90;;;;;;5050920;28;20066;-68
2022/01/01 09:48:52;;;;;;;64.78;27.73;;;11.70;99.90;;;;;;5046169;28;20179;-67
2022/01/01 09:51:20;;;;;;;56.55;25.65;;;11.80;99.90;;;;;;5065919;28;20071;-67
2022/01/01 09:53:47;;;;;;;52.15;24.10;;;11.80;99.90;;;;;;5033358;28;20049;-68
2022/01/01 09:56:12;;;;;;;52.08;24.65;;;11.80;99.90;;;;;;5046434;28;20092;-67
2022/01/01 09:58:39;;;;;;;51.55;25.30;;;11.90;99.90;;;;;;5049011;28;20495;-68
2022/01/01 10:01:07;;;;;;;50.28;23.48;;;11.90;99.90;;;;;;5049854;28;20525;-67
2022/01/01 10:03:48;;;;;;;53.60;24.35;;;12.00;99.90;;;;;;5051684;28;20053;-67
2022/01/01 10:06:17;;;;;;;49.08;23.02;;;12.00;99.90;;;;;;5032227;28;20045;-68
2022/01/01 10:08:47;;;;;;;52.92;24.42;;;12.00;99.90;;;;;;5045058;28;20059;-67
2022/01/01 10:11:16;;;;;;;48.63;23.67;;;12.00;99.90;;;;;;5050509;28;20044;-67
2022/01/01 10:13:43;;;;;;;44.15;20.65;;;12.00;99.90;;;;;;5049846;28;20040;-68
2022/01/01 10:16:10;;;;;;;43.67;21.67;;;12.00;99.90;;;;;;5051552;28;20037;-68
2022/01/01 10:18:42;;;;;;;41.87;19.83;;;12.00;99.90;;;;;;5039785;28;20101;-68
2022/01/01 10:21:10;;;;;;;44.92;19.85;;;12.00;99.90;;;;;;5062194;28;20541;-67
2022/01/01 10:23:38;;;;;;;37.55;18.52;;;12.00;99.90;;;;;;5051064;28;20513;-67
2022/01/01 10:28:54;;;;;;;35.67;16.88;;;12.10;99.90;;;;;;5049022;28;20049;-67
2022/01/01 10:31:20;;;;;;;36.92;16.13;;;12.10;99.90;;;;;;5050899;28;20045;-67
2022/01/01 10:33:46;;;;;;;39.72;14.90;;;12.10;99.90;;;;;;5050251;28;20048;-69
2022/01/01 10:36:14;;;;;;;33.15;15.35;;;12.10;99.90;;;;;;5029411;28;20404;-67
2022/01/01 10:38:39;;;;;;;38.50;15.87;;;12.10;99.90;;;;;;5050815;28;20040;-67
2022/01/01 10:41:09;;;;;;;35.40;15.68;;;12.20;99.90;;;;;;5058761;28;20486;-68
2022/01/01 10:43:40;;;;;;;38.65;14.82;;;12.10;99.90;;;;;;5051944;28;20068;-69
2022/01/01 10:46:10;;;;;;;31.67;15.60;;;12.20;99.90;;;;;;5058511;28;20049;-68
2022/01/01 10:51:02;;;;;;;37.30;17.58;;;12.20;99.90;;;;;;5049492;28;20055;-67
2022/01/01 10:53:28;;;;;;;36.15;16.23;;;12.20;99.90;;;;;;5041207;28;20525;-69
2022/01/01 10:56:15;;;;;;;39.13;16.38;;;12.20;99.90;;;;;;5045889;28;20442;-68
2022/01/01 10:58:42;;;;;;;40.88;17.67;;;12.20;99.90;;;;;;5059857;28;20045;-68
2022/01/01 11:01:09;;;;;;;43.78;18.02;;;12.20;99.90;;;;;;5047898;28;20129;-70
2022/01/01 11:03:37;;;;;;;39.20;16.20;;;12.80;99.90;;;;;;5051296;28;20041;-69
2022/01/01 11:06:05;;;;;;;36.08;16.50;;;12.30;99.90;;;;;;5049943;28;20040;-67
2022/01/01 11:08:32;;;;;;;45.25;20.13;;;12.30;99.90;;;;;;5049370;28;20044;-68
2022/01/01 11:10:58;;;;;;;38.60;16.67;;;12.30;99.90;;;;;;5046693;28;20052;-66
2022/01/01 11:13:24;;;;;;;35.38;15.30;;;12.30;99.90;;;;;;5048856;28;20047;-67
2022/01/01 11:15:51;;;;;;;36.15;14.98;;;12.30;99.90;;;;;;5048401;28;20124;-67
2022/01/01 11:18:17;;;;;;;39.53;16.17;;;12.30;99.90;;;;;;5046673;28;20052;-67
2022/01/01 11:20:43;;;;;;;34.17;15.55;;;12.20;99.90;;;;;;5047567;28;20080;-66
2022/01/01 11:23:10;;;;;;;42.47;16.52;;;12.20;99.90;;;;;;5045457;28;20049;-67
2022/01/01 11:25:38;;;;;;;36.45;15.68;;;12.20;99.90;;;;;;5031130;28;20395;-67
2022/01/01 11:28:07;;;;;;;30.07;15.17;;;12.30;99.90;;;;;;5048520;28;20033;-67
2022/01/01 11:30:36;;;;;;;35.47;15.32;;;12.30;99.90;;;;;;5048798;28;20044;-67
2022/01/01 11:33:05;;;;;;;37.92;15.35;;;12.30;99.90;;;;;;5049136;28;20063;-67
2022/01/01 11:35:34;;;;;;;32.03;14.05;;;12.30;99.90;;;;;;5048181;28;20076;-67
2022/01/01 11:38:09;;;;;;;29.13;13.25;;;12.30;99.90;;;;;;5047887;28;20087;-66
2022/01/01 11:40:54;;;;;;;29.10;12.93;;;12.30;99.90;;;;;;5048295;28;20498;-67
2022/01/01 11:43:51;;;;;;;30.95;13.40;;;12.30;99.90;;;;;;5049269;28;20060;-67
2022/01/01 11:46:35;;;;;;;30.88;12.77;;;12.30;99.90;;;;;;5046779;28;20148;-67
2022/01/01 11:49:03;;;;;;;28.63;12.95;;;12.30;99.90;;;;;;5047394;28;20041;-67
2022/01/01 11:51:32;;;;;;;32.75;13.77;;;12.30;99.90;;;;;;5048814;28;20037;-67
2022/01/01 11:54:20;;;;;;;31.52;12.50;;;12.30;99.90;;;;;;5048616;28;20052;-66
2022/01/01 11:56:51;;;;;;;25.52;12.48;;;12.30;99.90;;;;;;5044016;28;20044;-66
2022/01/01 11:59:21;;;;;;;28.58;12.02;;;12.40;99.90;;;;;;5046549;28;20090;-68
2022/01/01 12:01:52;;;;;;;23.45;10.48;;;12.40;99.90;;;;;;5048260;28;20107;-67
2022/01/01 12:04:40;;;;;;;27.98;11.52;;;12.40;99.90;;;;;;5046859;28;20045;-67
2022/01/01 12:07:24;;;;;;;23.73;11.23;;;12.40;99.90;;;;;;5048051;28;20116;-67
2022/01/01 12:10:11;;;;;;;46.97;11.75;;;12.40;99.90;;;;;;5046895;28;20040;-66
2022/01/01 12:12:43;;;;;;;40.00;11.30;;;12.40;99.90;;;;;;5045839;28;20048;-67
2022/01/01 12:15:25;;;;;;;40.25;11.02;;;12.40;99.90;;;;;;5053284;28;20033;-67
2022/01/01 12:18:13;;;;;;;27.63;10.88;;;12.40;99.90;;;;;;5050981;28;20124;-66
2022/01/01 12:20:38;;;;;;;25.20;9.88;;;12.40;99.90;;;;;;5048213;28;20495;-67
2022/01/01 12:23:10;;;;;;;19.27;8.75;;;12.40;99.90;;;;;;5067335;28;20175;-66
2022/01/01 12:25:38;;;;;;;18.48;7.88;;;12.40;99.90;;;;;;5052296;28;20061;-68
2022/01/01 12:28:05;;;;;;;;;;;12.40;99.90;;;;;;5052453;28;20487;-67
2022/01/01 12:30:35;;;;;;;15.70;8.27;;;12.40;99.90;;;;;;5052538;28;20323;-67
2022/01/01 12:33:03;;;;;;;23.42;8.60;;;12.40;99.90;;;;;;5051906;28;20048;-67
2022/01/01 12:35:37;;;;;;;20.10;7.80;;;12.40;99.90;;;;;;5053015;28;20088;-68
2022/01/01 12:38:09;;;;;;;19.55;8.02;;;12.40;99.90;;;;;;5041451;28;20049;-66